CheckWX is a tool to help pilots better visualize weather data.  It is not intended as a substitute for an official pre-flight weather briefing.

06:56:48 UTC

KNBT METAR
Bt-11 Bombing Range Airport
Piney Island, North Carolina, USA
Current

1 hour ago

KNBT 180556Z AUTO 21008KT 10SM CLR 25/24 A3006 RMK AO2 SLP182 T02500239 10272 20250 58004 $
Observed
Jun-18 @ 05:56 UTC
Wind
  • 210° at 8 KTS
Visibility
10 SM
Flight Rules
VFR
Cloud Levels
  • Clear skies
Temperature
25°C / 77°F
Dewpoint
24°C / 75°F
Humidity
94%
Altimeter
30.06" Hg
Pressure
1017.92 hPa
Previous

2 hours ago

KNBT 180456Z AUTO 21008KT 10SM CLR 26/24 A3007 RMK AO2 SLP186 T02560239 403170228 $
Observed
Jun-18 @ 04:56 UTC
Wind
  • 210° at 8 KTS
Visibility
10 SM
Flight Rules
VFR
Cloud Levels
  • Clear skies
Temperature
26°C / 79°F
Dewpoint
24°C / 75°F
Humidity
89%
Altimeter
30.07" Hg
Pressure
1018.32 hPa
Previous

3 hours ago

KNBT 180356Z AUTO 22009KT 10SM CLR 26/24 A3007 RMK AO2 SLP188 T02560239 $
Observed
Jun-18 @ 03:56 UTC
Wind
  • 220° at 9 KTS
Visibility
10 SM
Flight Rules
VFR
Cloud Levels
  • Clear skies
Temperature
26°C / 79°F
Dewpoint
24°C / 75°F
Humidity
89%
Altimeter
30.07" Hg
Pressure
1018.32 hPa